(Default Airport = EGHI - Southampton International)

METAR = EGHI 241150Z 31005KT 260V010 9999 FEW040 12/03 Q1031

STATION........ EGHI
OBSERVED....... Sun Mar 24, 11:50 GMT
NOW............ Sun Mar 24, 12:04 GMT
AGE............ 14 min ago
WIND........... NW at 6 mph
VISIBILITY..... 16 miles
CLOUDS......... partly cloudy
TEMP........... 54°F (12°C)
DEWPT.......... 37°F (3°C)
HUMIDITY....... 54%
BAROMETER...... 1031 hPa (30.45 in Hg)


    Get Weather Info from Airport: